createdAt,value
2018-06-25T00:02:45.774Z,68.40
2018-06-25T00:05:14.534Z,68.30
2018-06-25T00:07:43.353Z,68.30
2018-06-25T00:10:12.013Z,68.40
2018-06-25T00:12:41.149Z,68.20
2018-06-25T00:15:09.873Z,68.00
2018-06-25T00:17:38.845Z,68.10
2018-06-25T00:20:07.347Z,68.70
2018-06-25T00:22:35.887Z,68.10
2018-06-25T00:25:04.424Z,68.30
2018-06-25T00:27:32.972Z,68.40
2018-06-25T00:35:00.566Z,68.60
2018-06-25T00:37:29.184Z,68.40
2018-06-25T00:39:58.790Z,68.90
2018-06-25T00:42:27.543Z,69.00
2018-06-25T00:44:57.087Z,69.00
2018-06-25T00:47:25.924Z,69.00
2018-06-25T00:49:57.828Z,69.00
2018-06-25T00:52:27.376Z,68.80
2018-06-25T00:54:57.735Z,68.80
2018-06-25T00:57:28.380Z,68.70
2018-06-25T00:59:59.640Z,68.70
2018-06-25T01:02:28.405Z,68.80
2018-06-25T01:04:56.906Z,68.70
2018-06-25T01:07:26.725Z,68.70
2018-06-25T01:09:55.198Z,68.70
2018-06-25T01:12:29.583Z,68.70
2018-06-25T01:15:27.371Z,68.70
2018-06-25T01:29:48.434Z,69.30
2018-06-25T01:32:17.419Z,69.20
2018-06-25T01:34:47.737Z,69.20
2018-06-25T01:37:18.299Z,70.10
2018-06-25T01:44:59.775Z,69.30
2018-06-25T01:48:21.636Z,69.30
2018-06-25T01:54:04.257Z,69.60
2018-06-25T01:56:40.207Z,70.00
2018-06-25T01:59:10.591Z,70.10
2018-06-25T02:07:02.020Z,69.70
2018-06-25T02:09:44.534Z,70.20
2018-06-25T02:12:15.233Z,70.50
2018-06-25T02:14:44.636Z,70.40
2018-06-25T02:17:14.155Z,70.70
2018-06-25T02:19:46.655Z,70.60
2018-06-25T02:22:18.828Z,70.50
2018-06-25T02:24:48.591Z,70.50
2018-06-25T02:27:18.140Z,70.50
2018-06-25T02:29:49.486Z,70.30
2018-06-25T02:32:22.332Z,70.10
2018-06-25T02:34:51.291Z,70.10
2018-06-25T02:37:21.046Z,70.00
2018-06-25T02:39:53.139Z,70.20
2018-06-25T02:42:22.740Z,70.20
2018-06-25T02:44:51.531Z,70.20
2018-06-25T02:47:35.632Z,70.10
2018-06-25T02:50:19.230Z,70.00
2018-06-25T03:18:24.399Z,70.00
2018-06-25T03:20:53.743Z,70.10
2018-06-25T03:23:24.686Z,70.10
2018-06-25T03:25:59.439Z,70.00
2018-06-25T03:28:29.018Z,70.00
2018-06-25T03:30:57.622Z,70.00
2018-06-25T03:33:31.731Z,69.80
2018-06-25T03:36:02.726Z,69.70
2018-06-25T03:38:32.356Z,69.70
2018-06-25T03:41:02.180Z,69.70
2018-06-25T03:43:30.814Z,70.70
2018-06-25T03:45:59.479Z,69.80
2018-06-25T03:50:57.251Z,69.80
2018-06-25T04:09:49.703Z,69.70
2018-06-25T04:12:18.996Z,69.80
2018-06-25T04:14:49.249Z,69.70
2018-06-25T04:17:18.348Z,69.80
2018-06-25T04:19:56.642Z,69.90
2018-06-25T04:22:28.154Z,69.90
2018-06-25T04:25:13.431Z,69.80
2018-06-25T04:32:51.232Z,69.60
2018-06-25T04:35:20.427Z,69.80
2018-06-25T04:37:49.187Z,69.90
2018-06-25T04:40:22.339Z,70.20
2018-06-25T04:42:51.063Z,70.20
2018-06-25T04:45:24.162Z,70.00
2018-06-25T04:50:27.067Z,70.10
2018-06-25T04:52:55.899Z,70.10
2018-06-25T04:55:28.674Z,70.00
2018-06-25T04:57:57.319Z,70.70
2018-06-25T05:00:27.663Z,69.60
2018-06-25T05:02:56.739Z,69.60
2018-06-25T05:05:26.570Z,69.60
2018-06-25T05:07:55.108Z,69.70
2018-06-25T05:10:23.789Z,70.50
2018-06-25T05:12:52.554Z,69.70
2018-06-25T05:15:22.036Z,69.80
2018-06-25T05:17:59.784Z,69.30
2018-06-25T07:09:58.972Z,69.30
2018-06-25T07:12:51.512Z,67.40
2018-06-25T07:21:48.552Z,67.90
2018-06-25T07:24:59.200Z,67.90
2018-06-25T08:48:49.925Z,67.30
2018-06-25T08:51:19.717Z,64.10
2018-06-25T08:53:49.110Z,65.90
2018-06-25T08:56:21.386Z,64.00
2018-06-25T08:58:50.906Z,62.10
2018-06-25T09:01:20.117Z,61.90
2018-06-25T09:03:50.789Z,61.60
2018-06-25T09:06:19.578Z,61.80
2018-06-25T09:08:48.754Z,61.60
2018-06-25T09:11:19.593Z,61.10
2018-06-25T09:13:49.146Z,62.00
2018-06-25T09:16:19.121Z,61.90
2018-06-25T09:18:48.811Z,61.20
2018-06-25T09:21:19.627Z,61.40
2018-06-25T09:26:20.823Z,60.90
2018-06-25T09:31:21.551Z,60.50
2018-06-25T09:33:50.883Z,60.00
2018-06-25T09:36:22.003Z,60.90
2018-06-25T09:38:51.826Z,60.50
2018-06-25T09:41:22.806Z,59.80
2018-06-25T09:43:52.233Z,60.10
2018-06-25T09:46:21.008Z,60.90
2018-06-25T09:48:51.590Z,60.70
2018-06-25T09:51:22.713Z,59.90
2018-06-25T09:53:52.845Z,59.80
2018-06-25T09:56:22.375Z,59.80
2018-06-25T09:58:51.118Z,59.80
2018-06-25T10:01:19.907Z,59.60
2018-06-25T10:03:50.206Z,60.20
2018-06-25T10:06:19.818Z,60.80
2018-06-25T10:08:49.788Z,59.90
2018-06-25T10:11:18.739Z,58.90
2018-06-25T10:13:49.251Z,58.40
2018-06-25T10:16:19.163Z,58.40
2018-06-25T10:18:49.252Z,58.30
2018-06-25T10:21:18.705Z,58.30
2018-06-25T10:23:48.970Z,57.90
2018-06-25T10:26:17.966Z,58.20
2018-06-25T10:28:47.124Z,59.10
2018-06-25T10:31:17.888Z,58.00
2018-06-25T10:33:47.561Z,57.30
2018-06-25T10:36:20.162Z,57.40
2018-06-25T10:38:49.118Z,57.20
2018-06-25T10:41:18.812Z,57.80
2018-06-25T10:43:50.769Z,57.70
2018-06-25T10:46:20.243Z,57.80
2018-06-25T10:48:50.789Z,58.70
2018-06-25T10:51:19.898Z,58.80
2018-06-25T10:53:50.335Z,58.30
2018-06-25T10:56:27.323Z,57.00
2018-06-25T10:59:25.512Z,57.50
2018-06-25T11:02:00.049Z,57.90
2018-06-25T11:04:48.052Z,57.80
2018-06-25T11:07:55.106Z,58.20
2018-06-25T11:11:31.207Z,58.40
2018-06-25T11:14:33.955Z,58.70
2018-06-25T11:20:25.056Z,58.60
2018-06-25T11:26:10.524Z,58.10
2018-06-25T11:29:12.692Z,58.70
2018-06-25T11:52:31.231Z,58.30
2018-06-25T11:54:59.919Z,57.20
2018-06-25T11:57:30.419Z,57.70
2018-06-25T12:00:00.212Z,57.80
2018-06-25T12:02:30.521Z,57.70
2018-06-25T12:04:59.401Z,57.40
2018-06-25T12:07:28.148Z,57.60
2018-06-25T12:09:57.172Z,57.60
2018-06-25T12:12:34.987Z,57.40
2018-06-25T12:15:03.661Z,56.90
2018-06-25T12:17:32.247Z,57.20
2018-06-25T12:20:00.940Z,56.90
2018-06-25T12:22:29.859Z,56.50
2018-06-25T12:25:00.025Z,56.20
2018-06-25T12:27:28.872Z,56.50
2018-06-25T12:32:53.392Z,55.80
2018-06-25T12:35:21.854Z,56.20
2018-06-25T12:37:50.437Z,56.20
2018-06-25T12:40:18.913Z,56.20
2018-06-25T12:44:25.976Z,56.50
2018-06-25T12:47:33.041Z,56.00
2018-06-25T12:50:53.689Z,55.80
2018-06-25T13:01:41.899Z,55.50
2018-06-25T13:04:18.436Z,55.20
2018-06-25T13:06:47.211Z,55.60
2018-06-25T13:09:19.427Z,55.40
2018-06-25T13:12:03.621Z,54.80
2018-06-25T13:23:05.962Z,55.00
2018-06-25T13:38:27.778Z,56.80
2018-06-25T13:40:56.591Z,57.10
2018-06-25T13:43:25.326Z,57.20
2018-06-25T13:45:56.147Z,57.20
2018-06-25T14:05:16.752Z,56.20
2018-06-25T14:16:21.463Z,57.00
2018-06-25T14:20:06.543Z,56.00
2018-06-25T14:22:56.809Z,55.00
2018-06-25T14:25:33.504Z,54.50
2018-06-25T14:28:08.136Z,55.10
2018-06-25T14:31:42.728Z,55.60
2018-06-25T14:34:17.817Z,55.70
2018-06-25T14:36:48.422Z,55.50
2018-06-25T14:39:20.510Z,55.50
2018-06-25T14:41:56.937Z,55.70
2018-06-25T14:44:30.039Z,55.50
2018-06-25T14:48:22.787Z,55.20
2018-06-25T14:50:52.192Z,54.30
2018-06-25T14:53:21.731Z,54.10
2018-06-25T14:55:50.572Z,55.00
2018-06-25T14:58:19.222Z,55.20
2018-06-25T15:00:49.571Z,53.10
2018-06-25T15:03:19.163Z,53.10
2018-06-25T15:05:48.742Z,53.20
2018-06-25T15:08:19.102Z,52.70
2018-06-25T15:10:47.831Z,53.50
2018-06-25T15:13:19.245Z,54.20
2018-06-25T15:15:48.014Z,54.00
2018-06-25T15:18:18.990Z,53.20
2018-06-25T15:20:48.324Z,53.10
2018-06-25T15:23:19.174Z,52.70
2018-06-25T15:25:47.862Z,52.50
2018-06-25T15:28:17.905Z,52.80
2018-06-25T15:30:49.467Z,52.90
2018-06-25T15:33:18.083Z,52.80
2018-06-25T15:35:49.916Z,52.50
2018-06-25T15:38:31.067Z,51.50
2018-06-25T15:40:59.677Z,51.50
2018-06-25T15:43:28.157Z,51.80
2018-06-25T15:45:56.711Z,51.50
2018-06-25T15:48:25.342Z,51.20
2018-06-25T15:50:53.918Z,51.40
2018-06-25T15:53:23.161Z,51.60
2018-06-25T15:55:51.693Z,52.40
2018-06-25T15:58:21.107Z,52.90
2018-06-25T16:00:50.641Z,52.50
2018-06-25T16:03:23.437Z,52.80
2018-06-25T16:05:52.049Z,52.90
2018-06-25T16:08:21.457Z,52.30
2018-06-25T16:10:51.366Z,52.10
2018-06-25T16:13:20.819Z,52.30
2018-06-25T16:15:49.485Z,52.40
2018-06-25T16:18:19.086Z,52.50
2018-06-25T16:20:48.551Z,52.10
2018-06-25T16:23:18.515Z,52.10
2018-06-25T16:25:48.128Z,51.70
2018-06-25T16:28:17.868Z,51.00
2018-06-25T16:30:47.842Z,51.60
2018-06-25T16:33:17.795Z,50.70
2018-06-25T16:35:48.322Z,50.50
2018-06-25T16:38:19.061Z,50.50
2018-06-25T16:40:49.192Z,50.80
2018-06-25T16:43:17.868Z,51.20
2018-06-25T16:45:47.082Z,52.30
2018-06-25T16:48:18.090Z,51.10
2018-06-25T16:50:55.086Z,50.80
2018-06-25T16:53:23.719Z,52.10
2018-06-25T16:55:52.489Z,51.30
2018-06-25T16:58:22.282Z,51.50
2018-06-25T17:00:51.099Z,51.50
2018-06-25T17:03:23.070Z,51.50
2018-06-25T17:05:51.566Z,51.30
2018-06-25T17:08:21.659Z,51.30
2018-06-25T17:10:51.320Z,50.90
2018-06-25T17:13:20.829Z,50.90
2018-06-25T17:15:52.649Z,51.00
2018-06-25T17:18:41.003Z,51.20
2018-06-25T17:21:13.111Z,50.50
2018-06-25T17:23:49.031Z,50.10
2018-06-25T17:26:19.422Z,50.50
2018-06-25T17:28:48.634Z,50.40
2018-06-25T17:31:19.574Z,49.80
2018-06-25T17:36:48.371Z,49.70
2018-06-25T17:39:18.425Z,48.80
2018-06-25T17:41:51.507Z,48.60
2018-06-25T17:44:22.339Z,48.70
2018-06-25T17:46:52.286Z,48.50
2018-06-25T17:49:23.616Z,48.60
2018-06-25T17:51:52.929Z,49.00
2018-06-25T17:54:21.658Z,48.80
2018-06-25T17:56:50.836Z,49.10
2018-06-25T17:59:22.932Z,49.40
2018-06-25T18:01:52.598Z,49.80
2018-06-25T18:04:23.969Z,49.70
2018-06-25T18:06:52.635Z,49.80
2018-06-25T18:09:21.998Z,50.10
2018-06-25T18:11:51.980Z,49.80
2018-06-25T18:14:21.439Z,50.40
2018-06-25T18:16:50.104Z,50.60
2018-06-25T18:19:18.820Z,50.30
2018-06-25T18:21:48.789Z,50.70
2018-06-25T18:24:17.547Z,50.60
2018-06-25T18:26:48.576Z,50.60
2018-06-25T18:29:18.217Z,50.90
2018-06-25T18:31:52.578Z,50.80
2018-06-25T18:34:24.211Z,50.80
2018-06-25T18:36:53.122Z,50.70
2018-06-25T18:39:22.420Z,50.80
2018-06-25T18:41:53.181Z,51.00
2018-06-25T18:44:21.902Z,50.90
2018-06-25T18:46:51.169Z,51.70
2018-06-25T18:49:19.817Z,51.10
2018-06-25T18:51:49.863Z,51.10
2018-06-25T18:54:20.125Z,51.40
2018-06-25T18:56:52.315Z,51.50
2018-06-25T19:01:52.835Z,51.80
2018-06-25T19:04:24.841Z,51.80
2018-06-25T19:06:54.309Z,51.90
2018-06-25T19:09:23.165Z,52.20
2018-06-25T19:11:52.118Z,52.20
2018-06-25T19:14:21.477Z,52.00
2018-06-25T19:16:51.378Z,52.10
2018-06-25T19:19:20.079Z,52.30
2018-06-25T19:21:48.689Z,52.00
2018-06-25T19:24:20.378Z,52.10
2018-06-25T19:26:49.788Z,52.30
2018-06-25T19:29:21.391Z,52.40
2018-06-25T19:31:50.787Z,52.80
2018-06-25T19:34:19.355Z,52.80
2018-06-25T19:36:50.895Z,52.40
2018-06-25T19:39:19.891Z,52.40
2018-06-25T19:41:50.343Z,52.70
2018-06-25T19:44:20.235Z,52.80
2018-06-25T19:46:50.904Z,52.80
2018-06-25T19:49:20.661Z,53.00
2018-06-25T19:51:51.730Z,52.80
2018-06-25T19:54:20.513Z,53.10
2018-06-25T19:56:50.532Z,53.10
2018-06-25T19:59:19.695Z,53.10
2018-06-25T20:01:48.354Z,53.00
2018-06-25T20:04:17.865Z,53.20
2018-06-25T20:06:46.965Z,53.20
2018-06-25T20:09:17.742Z,53.00
2018-06-25T20:11:47.238Z,53.20
2018-06-25T20:14:18.196Z,53.20
2018-06-25T20:16:48.068Z,53.30
2018-06-25T20:19:18.418Z,53.30
2018-06-25T20:21:49.981Z,53.20
2018-06-25T20:24:18.742Z,53.30
2018-06-25T20:26:47.533Z,53.30
2018-06-25T20:29:19.041Z,53.30
2018-06-25T20:31:49.958Z,53.40
2018-06-25T20:34:21.266Z,53.10
2018-06-25T20:36:49.750Z,53.30
2018-06-25T20:39:29.354Z,53.40
2018-06-25T20:42:45.403Z,53.10
2018-06-25T20:45:23.554Z,53.40
2018-06-25T20:47:58.407Z,53.50
2018-06-25T20:50:35.700Z,53.50
2018-06-25T20:53:21.309Z,53.40
2018-06-25T20:55:50.070Z,53.40
2018-06-25T20:58:18.877Z,53.60
2018-06-25T21:00:48.523Z,53.50
2018-06-25T21:03:18.124Z,53.80
2018-06-25T21:05:48.677Z,53.80
2018-06-25T21:08:17.501Z,53.90
2018-06-25T21:10:48.012Z,53.70
2018-06-25T21:13:18.391Z,53.60
2018-06-25T21:15:48.694Z,53.60
2018-06-25T21:18:18.866Z,54.00
2018-06-25T21:20:48.318Z,53.90
2018-06-25T21:23:17.792Z,53.70
2018-06-25T21:25:48.781Z,53.70
2018-06-25T21:28:27.721Z,53.80
2018-06-25T21:30:56.390Z,54.00
2018-06-25T21:33:25.283Z,54.10
2018-06-25T21:35:53.881Z,54.00
2018-06-25T21:38:22.704Z,54.70
2018-06-25T21:40:51.212Z,54.20
2018-06-25T21:43:20.770Z,54.20
2018-06-25T21:45:49.645Z,55.00
2018-06-25T21:48:18.545Z,54.30
2018-06-25T21:50:51.757Z,54.60
2018-06-25T23:00:58.831Z,54.60
2018-06-25T23:03:27.412Z,57.20
2018-06-25T23:05:57.062Z,57.40
2018-06-25T23:08:26.661Z,57.50
2018-06-25T23:10:56.388Z,57.40
2018-06-25T23:13:25.109Z,57.40
2018-06-25T23:15:53.847Z,57.40
2018-06-25T23:18:22.614Z,57.40
2018-06-25T23:20:51.351Z,57.50
2018-06-25T23:23:20.923Z,57.50
2018-06-25T23:25:50.302Z,57.60
2018-06-25T23:28:22.937Z,57.50
2018-06-25T23:30:51.587Z,57.50
2018-06-25T23:33:22.859Z,58.10
2018-06-25T23:35:51.554Z,57.70
2018-06-25T23:38:20.455Z,57.80
2018-06-25T23:40:50.230Z,57.80
2018-06-25T23:43:20.201Z,57.90
2018-06-25T23:45:50.067Z,57.90
2018-06-25T23:48:18.900Z,57.80
2018-06-25T23:50:49.318Z,58.00
2018-06-25T23:53:20.245Z,58.00
2018-06-25T23:55:50.834Z,58.00
2018-06-25T23:58:20.507Z,58.10
